createdAt,value
2023-03-06T00:02:25.880Z,85.18
2023-03-06T00:04:53.435Z,85.40
2023-03-06T00:07:22.050Z,85.37
2023-03-06T00:09:48.648Z,85.45
2023-03-06T00:12:15.259Z,85.37
2023-03-06T00:14:42.298Z,85.31
2023-03-06T00:17:08.963Z,85.36
2023-03-06T00:19:36.717Z,85.49
2023-03-06T00:22:05.488Z,85.55
2023-03-06T00:24:32.585Z,85.51
2023-03-06T00:26:59.202Z,85.40
2023-03-06T00:29:26.800Z,85.36
2023-03-06T00:31:53.408Z,85.37
2023-03-06T00:34:20.171Z,85.26
2023-03-06T00:36:46.815Z,85.21
2023-03-06T00:39:25.588Z,85.26
2023-03-06T00:42:00.039Z,85.21
2023-03-06T00:44:26.881Z,85.32
2023-03-06T00:46:53.519Z,85.33
2023-03-06T00:49:20.142Z,85.45
2023-03-06T00:51:46.756Z,85.43
2023-03-06T00:54:13.317Z,85.62
2023-03-06T00:56:39.945Z,85.74
2023-03-06T00:59:06.642Z,85.62
2023-03-06T01:01:33.363Z,85.51
2023-03-06T01:03:59.940Z,85.52
2023-03-06T01:06:26.691Z,85.47
2023-03-06T01:08:53.783Z,85.39
2023-03-06T01:11:20.838Z,85.38
2023-03-06T01:13:48.090Z,85.44
2023-03-06T01:16:17.225Z,85.44
2023-03-06T01:18:43.830Z,85.51
2023-03-06T01:21:10.583Z,85.44
2023-03-06T01:23:37.268Z,85.39
2023-03-06T01:26:04.452Z,85.40
2023-03-06T01:28:31.704Z,85.50
2023-03-06T01:30:58.300Z,85.56
2023-03-06T01:33:24.959Z,85.68
2023-03-06T01:35:51.684Z,85.69
2023-03-06T01:38:18.706Z,85.71
2023-03-06T01:40:46.004Z,85.87
2023-03-06T01:43:26.005Z,86.06
2023-03-06T01:45:53.055Z,86.06
2023-03-06T01:48:23.251Z,86.08
2023-03-06T01:50:52.828Z,85.97
2023-03-06T01:53:20.494Z,86.02
2023-03-06T01:55:47.090Z,85.90
2023-03-06T01:58:18.471Z,86.12
2023-03-06T02:00:45.744Z,85.73
2023-03-06T02:03:24.424Z,85.71
2023-03-06T02:05:54.258Z,85.46
2023-03-06T02:08:23.336Z,85.77
2023-03-06T02:11:11.109Z,85.81
2023-03-06T02:13:39.073Z,85.59
2023-03-06T02:16:07.008Z,85.79
2023-03-06T02:18:34.374Z,85.68
2023-03-06T02:21:06.133Z,85.57
2023-03-06T02:23:57.928Z,85.83
2023-03-06T02:26:27.272Z,85.73
2023-03-06T02:28:53.829Z,85.83
2023-03-06T02:31:30.825Z,85.79
2023-03-06T02:34:14.653Z,85.80
2023-03-06T02:36:46.253Z,85.81
2023-03-06T02:39:14.655Z,85.75
2023-03-06T02:41:41.364Z,85.73
2023-03-06T02:44:08.437Z,85.64
2023-03-06T02:46:35.118Z,85.68
2023-03-06T02:49:01.967Z,85.82
2023-03-06T02:51:28.881Z,86.09
2023-03-06T02:54:12.709Z,86.33
2023-03-06T02:56:39.343Z,86.33
2023-03-06T02:59:05.990Z,86.50
2023-03-06T03:01:33.642Z,86.44
2023-03-06T03:04:00.323Z,86.45
2023-03-06T03:06:27.407Z,86.66
2023-03-06T03:08:54.657Z,86.67
2023-03-06T03:11:21.380Z,86.66
2023-03-06T03:13:48.206Z,86.58
2023-03-06T03:16:16.115Z,86.75
2023-03-06T03:18:48.073Z,86.76
2023-03-06T03:21:15.033Z,86.79
2023-03-06T03:23:41.757Z,86.73
2023-03-06T03:26:14.422Z,86.69
2023-03-06T03:28:41.284Z,86.74
2023-03-06T03:31:10.138Z,86.75
2023-03-06T03:33:37.063Z,86.69
2023-03-06T03:36:06.206Z,86.91
2023-03-06T03:38:34.277Z,86.91
2023-03-06T03:41:04.062Z,86.88
2023-03-06T03:43:31.583Z,87.20
2023-03-06T03:45:58.160Z,87.11
2023-03-06T03:48:24.833Z,87.31
2023-03-06T03:50:51.707Z,87.33
2023-03-06T03:53:18.283Z,87.33
2023-03-06T03:55:46.869Z,87.20
2023-03-06T03:58:13.652Z,87.08
2023-03-06T04:00:40.304Z,87.33
2023-03-06T04:03:06.829Z,87.27
2023-03-06T04:05:34.125Z,87.31
2023-03-06T04:08:03.181Z,87.60
2023-03-06T04:10:29.888Z,87.54
2023-03-06T04:12:57.225Z,87.63
2023-03-06T04:15:23.809Z,87.68
2023-03-06T04:17:50.475Z,87.81
2023-03-06T04:20:17.332Z,87.57
2023-03-06T04:22:43.882Z,87.67
2023-03-06T04:25:10.503Z,87.65
2023-03-06T04:27:37.308Z,87.71
2023-03-06T04:30:05.468Z,87.57
2023-03-06T04:32:33.365Z,87.77
2023-03-06T04:35:00.162Z,87.71
2023-03-06T04:37:27.128Z,87.71
2023-03-06T04:39:53.838Z,87.87
2023-03-06T04:42:20.916Z,87.82
2023-03-06T04:44:47.619Z,87.87
2023-03-06T04:47:16.508Z,87.86
2023-03-06T04:49:44.468Z,87.89
2023-03-06T04:52:11.085Z,87.71
2023-03-06T04:54:37.635Z,87.93
2023-03-06T04:57:04.574Z,87.96
2023-03-06T04:59:31.102Z,87.85
2023-03-06T05:01:58.213Z,87.91
2023-03-06T05:04:25.138Z,87.77
2023-03-06T05:07:02.621Z,87.83
2023-03-06T05:09:29.327Z,87.88
2023-03-06T05:11:56.198Z,87.69
2023-03-06T05:14:22.795Z,87.86
2023-03-06T05:16:49.460Z,87.65
2023-03-06T05:19:16.333Z,87.65
2023-03-06T05:21:43.010Z,87.72
2023-03-06T05:24:10.224Z,87.69
2023-03-06T05:26:36.825Z,87.76
2023-03-06T05:29:04.651Z,87.71
2023-03-06T05:31:31.327Z,87.70
2023-03-06T05:33:58.890Z,87.59
2023-03-06T05:36:25.896Z,87.57
2023-03-06T05:38:52.695Z,87.71
2023-03-06T05:41:19.390Z,87.50
2023-03-06T05:43:45.973Z,87.58
2023-03-06T05:46:12.692Z,87.49
2023-03-06T05:48:39.390Z,87.44
2023-03-06T05:51:06.594Z,87.45
2023-03-06T05:53:33.367Z,87.41
2023-03-06T05:56:03.984Z,87.21
2023-03-06T05:58:34.021Z,87.21
2023-03-06T06:01:01.559Z,87.07
2023-03-06T06:03:28.505Z,87.12
2023-03-06T06:05:55.187Z,87.03
2023-03-06T06:08:22.020Z,86.75
2023-03-06T06:10:51.570Z,86.66
2023-03-06T06:13:19.783Z,86.40
2023-03-06T06:15:46.347Z,86.38
2023-03-06T06:18:13.217Z,86.17
2023-03-06T06:20:39.856Z,85.84
2023-03-06T06:23:06.851Z,85.31
2023-03-06T06:25:33.729Z,85.00
2023-03-06T06:28:00.306Z,84.62
2023-03-06T06:30:26.871Z,83.89
2023-03-06T06:32:53.923Z,83.58
2023-03-06T06:35:20.580Z,83.16
2023-03-06T06:37:47.192Z,82.43
2023-03-06T06:40:15.150Z,82.13
2023-03-06T06:42:42.861Z,81.61
2023-03-06T06:45:11.112Z,81.39
2023-03-06T06:47:41.713Z,81.22
2023-03-06T06:50:13.668Z,81.20
2023-03-06T06:52:40.689Z,80.85
2023-03-06T06:55:08.063Z,81.02
2023-03-06T06:57:34.699Z,80.96
2023-03-06T07:00:02.327Z,81.25
2023-03-06T07:02:28.944Z,81.08
2023-03-06T07:05:04.188Z,80.79
2023-03-06T07:07:34.417Z,80.80
2023-03-06T07:10:01.147Z,80.49
2023-03-06T07:12:27.717Z,80.21
2023-03-06T07:14:54.251Z,79.91
2023-03-06T07:17:21.210Z,80.06
2023-03-06T07:19:48.339Z,79.54
2023-03-06T07:22:28.136Z,79.00
2023-03-06T07:24:55.734Z,78.74
2023-03-06T07:27:23.799Z,78.75
2023-03-06T07:29:50.701Z,78.46
2023-03-06T07:32:18.632Z,78.48
2023-03-06T07:34:46.528Z,78.79
2023-03-06T07:37:13.268Z,79.03
2023-03-06T07:39:39.870Z,79.09
2023-03-06T07:42:07.893Z,79.14
2023-03-06T07:44:38.288Z,79.58
2023-03-06T07:47:05.764Z,79.70
2023-03-06T07:49:32.757Z,80.18
2023-03-06T07:52:01.448Z,80.21
2023-03-06T07:54:30.748Z,80.57
2023-03-06T07:56:57.453Z,80.50
2023-03-06T07:59:24.540Z,80.21
2023-03-06T08:01:51.753Z,80.23
2023-03-06T08:04:18.370Z,80.12
2023-03-06T08:06:45.168Z,79.83
2023-03-06T08:09:11.767Z,79.54
2023-03-06T08:11:38.308Z,79.61
2023-03-06T08:14:05.133Z,80.78
2023-03-06T08:16:31.877Z,80.09
2023-03-06T08:19:54.810Z,79.57
2023-03-06T08:26:01.624Z,78.47
2023-03-06T08:32:12.047Z,77.69
2023-03-06T08:38:15.686Z,76.62
2023-03-06T08:40:42.620Z,75.88
2023-03-06T08:43:12.971Z,76.11
2023-03-06T08:45:40.971Z,76.10
2023-03-06T08:48:07.864Z,76.18
2023-03-06T08:50:34.599Z,76.13
2023-03-06T08:53:01.286Z,76.46
2023-03-06T08:55:28.371Z,75.71
2023-03-06T08:57:55.092Z,75.41
2023-03-06T09:00:23.004Z,75.29
2023-03-06T09:02:49.936Z,74.48
2023-03-06T09:05:17.602Z,74.50
2023-03-06T09:07:44.285Z,73.81
2023-03-06T09:10:16.307Z,73.47
2023-03-06T09:12:50.138Z,73.62
2023-03-06T09:15:19.846Z,72.89
2023-03-06T09:17:47.510Z,72.35
2023-03-06T09:20:14.576Z,72.06
2023-03-06T09:22:42.559Z,71.67
2023-03-06T09:25:10.619Z,71.54
2023-03-06T09:27:37.199Z,71.73
2023-03-06T09:30:04.559Z,71.25
2023-03-06T09:32:34.085Z,70.77
2023-03-06T09:35:01.050Z,70.50
2023-03-06T09:37:46.069Z,70.46
2023-03-06T09:40:41.738Z,70.46
2023-03-06T09:43:24.877Z,70.16
2023-03-06T09:45:51.531Z,69.82
2023-03-06T09:48:22.432Z,69.83
2023-03-06T09:50:59.744Z,69.78
2023-03-06T09:53:49.075Z,69.62
2023-03-06T09:56:22.380Z,68.80
2023-03-06T09:58:54.346Z,68.69
2023-03-06T10:01:29.666Z,69.03
2023-03-06T10:04:11.539Z,68.80
2023-03-06T10:06:51.005Z,68.90
2023-03-06T10:09:24.490Z,68.70
2023-03-06T10:11:59.449Z,68.66
2023-03-06T10:14:37.646Z,68.17
2023-03-06T10:17:05.693Z,67.99
2023-03-06T10:19:37.778Z,67.94
2023-03-06T10:22:22.678Z,67.92
2023-03-06T10:25:00.151Z,67.09
2023-03-06T10:27:36.640Z,66.71
2023-03-06T10:30:15.389Z,66.96
2023-03-06T10:32:48.696Z,66.65
2023-03-06T10:35:22.348Z,66.27
2023-03-06T10:37:49.468Z,66.12
2023-03-06T10:40:28.017Z,66.07
2023-03-06T10:43:09.524Z,65.90
2023-03-06T10:45:49.503Z,64.48
2023-03-06T10:48:21.284Z,64.23
2023-03-06T10:50:48.495Z,64.72
2023-03-06T10:53:29.226Z,63.53
2023-03-06T10:56:00.477Z,63.15
2023-03-06T10:58:28.647Z,62.03
2023-03-06T11:01:05.045Z,61.78
2023-03-06T11:03:31.925Z,61.81
2023-03-06T11:06:03.152Z,61.49
2023-03-06T11:08:30.575Z,61.36
2023-03-06T11:11:01.655Z,61.67
2023-03-06T11:13:31.460Z,61.02
2023-03-06T11:16:26.904Z,60.66
2023-03-06T11:19:01.330Z,60.85
2023-03-06T11:21:37.639Z,61.41
2023-03-06T11:24:07.024Z,61.16
2023-03-06T11:26:43.950Z,59.68
2023-03-06T11:29:39.224Z,59.39
2023-03-06T11:32:12.070Z,59.44
2023-03-06T11:34:44.518Z,59.15
2023-03-06T11:37:43.305Z,59.09
2023-03-06T11:40:19.410Z,59.87
2023-03-06T11:43:11.301Z,59.73
2023-03-06T11:45:58.926Z,59.13
2023-03-06T11:48:33.685Z,58.90
2023-03-06T11:51:11.732Z,57.82
2023-03-06T11:53:42.948Z,57.25
2023-03-06T11:56:20.614Z,57.95
2023-03-06T11:58:59.058Z,57.64
2023-03-06T12:01:51.944Z,57.38
2023-03-06T12:04:33.275Z,56.97
2023-03-06T12:07:06.584Z,56.84
2023-03-06T12:09:46.471Z,56.56
2023-03-06T12:12:40.660Z,56.60
2023-03-06T12:15:26.158Z,56.19
2023-03-06T12:17:55.660Z,56.00
2023-03-06T12:20:37.431Z,56.09
2023-03-06T12:23:39.017Z,55.66
2023-03-06T12:26:31.393Z,54.96
2023-03-06T12:29:20.789Z,54.15
2023-03-06T12:31:58.298Z,53.70
2023-03-06T12:34:58.432Z,53.02
2023-03-06T12:37:36.112Z,53.14
2023-03-06T12:40:43.292Z,52.80
2023-03-06T12:43:46.658Z,53.54
2023-03-06T12:46:16.668Z,53.77
2023-03-06T12:48:48.877Z,53.58
2023-03-06T12:51:20.564Z,53.63
2023-03-06T12:53:48.744Z,54.32
2023-03-06T12:56:20.288Z,54.27
2023-03-06T12:58:57.077Z,54.63
2023-03-06T13:01:40.924Z,54.52
2023-03-06T13:04:23.872Z,54.56
2023-03-06T13:07:38.319Z,54.57
2023-03-06T13:10:16.548Z,54.96
2023-03-06T13:12:49.941Z,55.04
2023-03-06T13:15:39.995Z,55.44
2023-03-06T13:18:22.406Z,55.09
2023-03-06T13:20:50.271Z,56.00
2023-03-06T13:23:43.080Z,56.02
2023-03-06T13:26:31.174Z,56.17
2023-03-06T13:28:58.344Z,55.91
2023-03-06T13:31:34.324Z,56.28
2023-03-06T13:34:03.584Z,56.44
2023-03-06T13:36:35.885Z,56.60
2023-03-06T13:39:11.080Z,56.91
2023-03-06T13:41:44.335Z,56.67
2023-03-06T13:44:26.201Z,56.69
2023-03-06T13:47:06.932Z,56.97
2023-03-06T13:49:35.903Z,56.71
2023-03-06T13:52:11.541Z,56.86
2023-03-06T13:54:55.411Z,57.34
2023-03-06T13:57:43.363Z,58.35
2023-03-06T14:00:14.629Z,60.12
2023-03-06T14:02:56.280Z,62.13
2023-03-06T14:05:26.780Z,63.62
2023-03-06T14:08:18.069Z,64.68
2023-03-06T14:11:04.839Z,65.46
2023-03-06T14:13:59.220Z,65.69
2023-03-06T14:16:40.477Z,64.99
2023-03-06T14:19:17.412Z,63.99
2023-03-06T14:21:56.986Z,63.24
2023-03-06T14:24:35.973Z,63.75
2023-03-06T14:27:02.945Z,64.69
2023-03-06T14:29:30.360Z,65.38
2023-03-06T14:31:59.873Z,66.44
2023-03-06T14:34:35.221Z,67.15
2023-03-06T14:37:07.789Z,67.67
2023-03-06T14:39:36.288Z,68.03
2023-03-06T14:42:16.037Z,68.39
2023-03-06T14:44:43.026Z,68.59
2023-03-06T14:47:19.916Z,69.06
2023-03-06T14:49:46.511Z,69.33
2023-03-06T14:52:21.307Z,69.27
2023-03-06T14:54:48.809Z,69.51
2023-03-06T14:57:20.396Z,69.36
2023-03-06T14:59:58.971Z,69.14
2023-03-06T15:02:29.963Z,68.97
2023-03-06T15:05:03.388Z,68.88
2023-03-06T15:07:32.537Z,68.64
2023-03-06T15:10:00.621Z,68.58
2023-03-06T15:12:27.349Z,68.43
2023-03-06T15:15:14.334Z,68.23
2023-03-06T15:17:43.836Z,67.39
2023-03-06T15:20:50.359Z,66.77
2023-03-06T15:23:20.791Z,66.23
2023-03-06T15:25:51.352Z,66.09
2023-03-06T15:28:39.649Z,66.04
2023-03-06T15:31:18.577Z,65.80
2023-03-06T15:34:09.380Z,65.85
2023-03-06T15:36:42.473Z,67.76
2023-03-06T15:39:27.130Z,70.29
2023-03-06T15:42:18.344Z,71.97
2023-03-06T15:44:57.611Z,72.66
2023-03-06T15:47:24.745Z,73.09
2023-03-06T15:49:53.338Z,73.08
2023-03-06T15:52:21.929Z,73.25
2023-03-06T15:54:48.770Z,73.02
2023-03-06T15:57:25.348Z,72.77
2023-03-06T15:59:53.632Z,72.52
2023-03-06T16:02:22.546Z,72.03
2023-03-06T16:04:49.523Z,71.58
2023-03-06T16:07:16.242Z,71.44
2023-03-06T16:09:43.434Z,71.48
2023-03-06T16:12:19.300Z,71.38
2023-03-06T16:14:52.620Z,71.09
2023-03-06T16:17:19.415Z,70.73
2023-03-06T16:19:45.991Z,70.93
2023-03-06T16:22:12.708Z,70.82
2023-03-06T16:24:40.752Z,70.69
2023-03-06T16:27:15.057Z,70.87
2023-03-06T16:29:52.352Z,71.32
2023-03-06T16:32:19.020Z,72.26
2023-03-06T16:34:45.699Z,72.82
2023-03-06T16:37:14.211Z,73.50
2023-03-06T16:39:43.330Z,73.93
2023-03-06T16:42:10.144Z,74.39
2023-03-06T16:44:36.903Z,74.58
2023-03-06T16:47:03.604Z,74.83
2023-03-06T16:49:30.239Z,75.36
2023-03-06T16:51:57.133Z,75.63
2023-03-06T16:54:26.201Z,76.01
2023-03-06T16:56:53.003Z,76.29
2023-03-06T16:59:21.181Z,76.44
2023-03-06T17:01:47.893Z,76.69
2023-03-06T17:04:14.968Z,76.60
2023-03-06T17:06:41.991Z,76.72
2023-03-06T17:09:11.008Z,76.88
2023-03-06T17:11:38.878Z,76.95
2023-03-06T17:14:06.988Z,76.93
2023-03-06T17:16:33.692Z,77.00
2023-03-06T17:19:02.768Z,77.09
2023-03-06T17:21:30.395Z,77.00
2023-03-06T17:23:57.450Z,76.97
2023-03-06T17:26:24.307Z,77.19
2023-03-06T17:28:51.162Z,76.96
2023-03-06T17:31:25.391Z,77.08
2023-03-06T17:33:58.948Z,77.35
2023-03-06T17:36:28.129Z,77.26
2023-03-06T17:38:58.511Z,77.37
2023-03-06T17:41:28.048Z,77.20
2023-03-06T17:44:00.319Z,77.42
2023-03-06T17:46:27.041Z,77.35
2023-03-06T17:48:59.457Z,77.66
2023-03-06T17:51:37.848Z,77.99
2023-03-06T17:54:06.907Z,78.28
2023-03-06T17:56:33.474Z,78.61
2023-03-06T17:59:00.557Z,78.89
2023-03-06T18:01:28.602Z,79.15
2023-03-06T18:04:08.329Z,79.55
2023-03-06T18:06:41.158Z,79.73
2023-03-06T18:09:10.207Z,80.12
2023-03-06T18:11:37.324Z,80.39
2023-03-06T18:14:05.651Z,80.59
2023-03-06T18:16:32.823Z,80.90
2023-03-06T18:18:59.432Z,80.99
2023-03-06T18:21:28.788Z,81.15
2023-03-06T18:24:00.045Z,81.61
2023-03-06T18:26:31.863Z,81.79
2023-03-06T18:29:01.884Z,81.93
2023-03-06T18:31:37.992Z,81.95
2023-03-06T18:34:26.860Z,82.04
2023-03-06T18:36:56.141Z,82.07
2023-03-06T18:39:28.313Z,82.40
2023-03-06T18:42:00.092Z,82.28
2023-03-06T18:44:33.573Z,82.57
2023-03-06T18:47:03.676Z,82.86
2023-03-06T18:49:44.914Z,83.11
2023-03-06T18:52:16.423Z,82.98
2023-03-06T18:58:23.081Z,83.31
2023-03-06T19:00:49.871Z,83.62
2023-03-06T19:03:46.954Z,83.83
2023-03-06T19:06:17.000Z,83.95
2023-03-06T19:09:30.840Z,84.20
2023-03-06T19:12:17.987Z,84.32
2023-03-06T19:14:47.910Z,84.42
2023-03-06T19:17:55.088Z,84.63
2023-03-06T19:20:23.225Z,84.74
2023-03-06T19:22:50.120Z,84.71
2023-03-06T19:25:16.670Z,84.92
2023-03-06T19:27:46.117Z,85.20
2023-03-06T19:30:13.925Z,85.53
2023-03-06T19:32:40.590Z,85.44
2023-03-06T19:35:07.508Z,85.63
2023-03-06T19:37:34.552Z,85.83
2023-03-06T19:40:03.043Z,85.96
2023-03-06T19:42:32.440Z,86.02
2023-03-06T19:44:59.911Z,86.04
2023-03-06T19:47:26.425Z,86.12
2023-03-06T19:49:53.046Z,86.22
2023-03-06T19:52:19.718Z,86.56
2023-03-06T19:54:47.157Z,86.78
2023-03-06T19:57:14.768Z,87.08
2023-03-06T19:59:41.394Z,87.14
2023-03-06T20:02:10.957Z,87.44
2023-03-06T20:04:37.570Z,87.53
2023-03-06T20:07:07.633Z,87.49
2023-03-06T20:09:34.525Z,87.72
2023-03-06T20:12:01.645Z,87.76
2023-03-06T20:14:28.455Z,87.69
2023-03-06T20:16:55.294Z,87.65
2023-03-06T20:19:22.124Z,87.57
2023-03-06T20:21:48.692Z,87.67
2023-03-06T20:24:17.946Z,87.46
2023-03-06T20:26:47.337Z,87.34
2023-03-06T20:29:14.692Z,87.32
2023-03-06T20:31:41.285Z,87.33
2023-03-06T20:34:08.088Z,87.58
2023-03-06T20:36:37.260Z,87.65
2023-03-06T20:39:07.542Z,87.71
2023-03-06T20:41:34.165Z,87.61
2023-03-06T20:44:04.339Z,87.61
2023-03-06T20:46:31.388Z,87.70
2023-03-06T20:48:58.426Z,87.86
2023-03-06T20:51:31.732Z,87.93
2023-03-06T20:53:59.917Z,87.92
2023-03-06T20:56:29.679Z,87.83
2023-03-06T20:58:58.658Z,87.87
2023-03-06T21:01:32.397Z,88.09
2023-03-06T21:04:00.998Z,88.06
2023-03-06T21:06:29.192Z,87.98
2023-03-06T21:08:59.736Z,88.17
2023-03-06T21:11:27.089Z,88.13
2023-03-06T21:13:53.837Z,88.01
2023-03-06T21:16:23.029Z,88.10
2023-03-06T21:18:49.593Z,88.04
2023-03-06T21:21:19.359Z,88.32
2023-03-06T21:23:47.706Z,88.11
2023-03-06T21:26:18.884Z,88.10
2023-03-06T21:28:46.096Z,87.91
2023-03-06T21:31:14.654Z,87.95
2023-03-06T21:33:42.196Z,87.87
2023-03-06T21:36:09.949Z,87.83
2023-03-06T21:38:37.166Z,87.91
2023-03-06T21:41:08.897Z,87.71
2023-03-06T21:43:36.097Z,87.65
2023-03-06T21:46:03.946Z,87.69
2023-03-06T21:48:30.764Z,87.76
2023-03-06T21:51:15.912Z,87.81
2023-03-06T21:53:44.305Z,87.87
2023-03-06T21:56:12.207Z,87.85
2023-03-06T21:58:39.311Z,87.90
2023-03-06T22:01:14.490Z,87.67
2023-03-06T22:03:41.253Z,87.96
2023-03-06T22:06:12.551Z,87.96
2023-03-06T22:08:39.835Z,87.84
2023-03-06T22:11:11.568Z,87.82
2023-03-06T22:13:39.223Z,88.09
2023-03-06T22:16:06.605Z,87.96
2023-03-06T22:18:33.903Z,88.08
2023-03-06T22:21:00.994Z,87.94
2023-03-06T22:23:28.062Z,88.27
2023-03-06T22:25:54.823Z,88.22
2023-03-06T22:28:21.520Z,88.42
2023-03-06T22:30:49.197Z,88.44
2023-03-06T22:33:15.776Z,88.46
2023-03-06T22:35:42.488Z,88.43
2023-03-06T22:38:09.102Z,88.33
2023-03-06T22:40:36.143Z,88.38
2023-03-06T22:43:02.655Z,88.29
2023-03-06T22:45:29.240Z,88.31
2023-03-06T22:48:05.556Z,88.09
2023-03-06T22:50:35.841Z,88.30
2023-03-06T22:53:02.572Z,88.14
2023-03-06T22:55:29.164Z,88.15
2023-03-06T22:57:55.698Z,88.14
2023-03-06T23:00:22.305Z,88.28
2023-03-06T23:02:48.878Z,88.04
2023-03-06T23:05:16.137Z,88.07
2023-03-06T23:07:44.874Z,87.98
2023-03-06T23:10:11.853Z,88.07
2023-03-06T23:12:41.630Z,87.95
2023-03-06T23:15:08.383Z,88.27
2023-03-06T23:17:34.964Z,88.31
2023-03-06T23:20:05.791Z,88.45
2023-03-06T23:22:36.654Z,88.26
2023-03-06T23:25:03.170Z,88.39
2023-03-06T23:27:29.841Z,88.32
2023-03-06T23:29:59.159Z,88.39
2023-03-06T23:32:26.061Z,88.30
2023-03-06T23:34:52.918Z,88.35
2023-03-06T23:37:19.639Z,88.48
2023-03-06T23:39:46.199Z,88.33
2023-03-06T23:42:12.937Z,88.33
2023-03-06T23:44:39.466Z,88.38
2023-03-06T23:47:06.088Z,88.42
2023-03-06T23:49:32.893Z,88.48
2023-03-06T23:51:59.627Z,88.51
2023-03-06T23:54:26.564Z,88.42
2023-03-06T23:56:53.236Z,88.40
2023-03-06T23:59:19.888Z,88.42
